createdAt,value
2023-03-29T04:08:32.003Z,101193.34
2023-03-29T04:11:37.495Z,101201.25
2023-03-29T04:14:47.450Z,101193.06
2023-03-29T04:17:49.986Z,101191.81
2023-03-29T04:20:52.936Z,101188.91
2023-03-29T04:23:56.654Z,101187.84
2023-03-29T04:26:59.051Z,101191.41
2023-03-29T04:30:02.044Z,101181.38
2023-03-29T04:33:05.906Z,101186.09
2023-03-29T04:36:09.303Z,101182.19
2023-03-29T04:39:11.486Z,101189.19
2023-03-29T04:42:14.635Z,101189.09
2023-03-29T04:45:18.139Z,101192.00
2023-03-29T04:48:22.418Z,101196.69
2023-03-29T04:51:24.598Z,101204.50
2023-03-29T04:54:27.319Z,101194.34
2023-03-29T04:57:30.242Z,101199.59
2023-03-29T05:00:34.084Z,101205.03
2023-03-29T05:03:37.083Z,101212.87
2023-03-29T05:06:41.094Z,101217.69
2023-03-29T05:09:43.738Z,101209.69
2023-03-29T05:12:46.994Z,101214.47
2023-03-29T05:15:49.299Z,101210.28
2023-03-29T05:18:51.863Z,101212.87
2023-03-29T05:21:54.501Z,101213.75
2023-03-29T05:24:57.499Z,101215.03
2023-03-29T05:27:59.763Z,101216.34
2023-03-29T05:31:04.884Z,101218.25
2023-03-29T05:34:07.451Z,101211.34
2023-03-29T05:37:10.693Z,101205.12
2023-03-29T05:40:13.968Z,101205.12
2023-03-29T05:43:17.193Z,101211.25
2023-03-29T05:46:19.643Z,101213.84
2023-03-29T05:49:22.635Z,101215.81
2023-03-29T05:52:26.097Z,101212.06
2023-03-29T05:55:28.494Z,101205.69
2023-03-29T05:58:30.786Z,101214.81
2023-03-29T06:01:34.034Z,101211.81
2023-03-29T06:04:37.234Z,101209.84
2023-03-29T06:07:42.417Z,101210.78
2023-03-29T06:10:47.163Z,101215.53
2023-03-29T06:13:50.135Z,101217.59
2023-03-29T06:16:53.323Z,101222.09
2023-03-29T06:19:55.885Z,101216.00
2023-03-29T06:22:58.968Z,101216.87
2023-03-29T06:26:01.775Z,101218.56
2023-03-29T06:29:04.457Z,101221.88
2023-03-29T06:32:06.866Z,101224.66
2023-03-29T06:35:10.979Z,101223.22
2023-03-29T06:38:15.054Z,101231.44
2023-03-29T06:41:18.629Z,101219.50
2023-03-29T06:44:22.976Z,101225.22
2023-03-29T06:47:30.839Z,101226.31
2023-03-29T06:50:34.097Z,101224.91
2023-03-29T06:53:37.174Z,101230.16
2023-03-29T06:56:39.612Z,101226.87
2023-03-29T06:59:43.368Z,101220.09
2023-03-29T07:02:46.491Z,101227.72
2023-03-29T07:05:51.895Z,101228.97
2023-03-29T07:08:59.631Z,101230.72
2023-03-29T07:12:02.730Z,101235.62
2023-03-29T07:15:05.448Z,101241.41
2023-03-29T07:18:14.969Z,101248.13
2023-03-29T07:21:17.492Z,101252.66
2023-03-29T07:24:21.304Z,101245.12
2023-03-29T07:27:23.682Z,101251.84
2023-03-29T07:30:31.622Z,101248.81
2023-03-29T07:33:39.485Z,101254.16
2023-03-29T07:36:43.650Z,101262.59
2023-03-29T07:39:45.917Z,101264.88
2023-03-29T07:42:56.459Z,101256.94
2023-03-29T07:46:04.629Z,101257.09
2023-03-29T07:49:08.140Z,101261.47
2023-03-29T07:52:10.401Z,101258.22
2023-03-29T07:55:14.373Z,101260.81
2023-03-29T07:58:20.698Z,101261.50
2023-03-29T08:01:24.763Z,101263.69
2023-03-29T08:04:30.972Z,101260.97
2023-03-29T08:07:44.154Z,101260.06
2023-03-29T08:10:47.168Z,101264.25
2023-03-29T08:13:49.447Z,101255.28
2023-03-29T08:16:54.311Z,101257.75
2023-03-29T08:19:56.445Z,101250.06
2023-03-29T08:22:59.276Z,101256.19
2023-03-29T08:26:02.289Z,101251.31
2023-03-29T08:29:04.785Z,101253.28
2023-03-29T08:32:07.117Z,101250.31
2023-03-29T08:35:10.073Z,101246.94
2023-03-29T08:38:12.723Z,101250.78
2023-03-29T08:41:33.889Z,101247.31
2023-03-29T08:45:07.737Z,101239.03
2023-03-29T08:48:16.389Z,101249.41
2023-03-29T08:51:31.615Z,101237.41
2023-03-29T08:54:41.513Z,101247.78
2023-03-29T08:57:49.680Z,101237.97
2023-03-29T09:00:57.330Z,101228.19
2023-03-29T09:04:09.014Z,101221.34
2023-03-29T09:07:14.443Z,101223.00
2023-03-29T09:10:20.501Z,101215.06
2023-03-29T09:13:39.551Z,101215.91
2023-03-29T09:17:04.919Z,101206.31
2023-03-29T09:20:32.050Z,101205.56
2023-03-29T09:23:50.495Z,101204.59
2023-03-29T09:26:59.039Z,101193.69
2023-03-29T09:30:32.056Z,101187.09
2023-03-29T09:33:43.153Z,101184.75
2023-03-29T09:36:54.640Z,101187.34
2023-03-29T09:39:57.677Z,101189.03
2023-03-29T09:43:04.166Z,101181.25
2023-03-29T09:46:16.186Z,101175.38
2023-03-29T09:49:58.845Z,101176.59
2023-03-29T09:53:08.247Z,101171.47
2023-03-29T09:56:11.123Z,101169.41
2023-03-29T09:59:14.007Z,101163.63
2023-03-29T10:02:19.992Z,101158.53
2023-03-29T10:05:25.569Z,101154.69
2023-03-29T10:08:39.561Z,101158.84
2023-03-29T10:11:47.684Z,101147.25
2023-03-29T10:14:53.571Z,101142.06
2023-03-29T10:18:03.124Z,101153.53
2023-03-29T10:21:05.909Z,101142.66
2023-03-29T10:24:09.441Z,101138.56
2023-03-29T10:27:11.753Z,101140.78
2023-03-29T10:30:24.038Z,101132.19
2023-03-29T10:33:31.488Z,101131.91
2023-03-29T10:36:34.252Z,101139.59
2023-03-29T10:39:37.157Z,101128.56
2023-03-29T10:42:49.868Z,101121.63
2023-03-29T10:45:54.866Z,101124.06
2023-03-29T10:48:59.947Z,101116.47
2023-03-29T10:52:02.103Z,101115.88
2023-03-29T10:55:05.174Z,101116.47
2023-03-29T10:58:20.353Z,101110.38
2023-03-29T11:01:31.610Z,101104.94
2023-03-29T11:04:47.547Z,101112.84
2023-03-29T11:08:20.721Z,101115.31
2023-03-29T11:11:28.749Z,101104.00
2023-03-29T11:15:08.157Z,101102.97
2023-03-29T11:18:22.353Z,101100.25
2023-03-29T11:21:28.114Z,101101.97
2023-03-29T11:24:39.286Z,101105.06
2023-03-29T11:27:55.210Z,101099.56
2023-03-29T11:31:28.985Z,101090.31
2023-03-29T11:35:03.256Z,101091.53
2023-03-29T11:38:19.041Z,101084.75
2023-03-29T11:41:32.052Z,101071.47
2023-03-29T11:44:35.947Z,101070.50
2023-03-29T11:47:40.946Z,101061.38
2023-03-29T11:50:51.068Z,101066.41
2023-03-29T11:53:57.466Z,101061.78
2023-03-29T11:57:10.166Z,101060.41
2023-03-29T12:00:22.125Z,101059.97
2023-03-29T12:03:50.528Z,101063.59
2023-03-29T12:07:09.559Z,101050.41
2023-03-29T12:10:20.763Z,101040.00
2023-03-29T12:13:33.793Z,101038.09
2023-03-29T12:16:50.017Z,101038.53
2023-03-29T12:20:19.476Z,101030.94
2023-03-29T12:23:22.511Z,101022.94
2023-03-29T12:30:49.235Z,101013.75
2023-03-29T12:34:04.787Z,101007.81
2023-03-29T12:37:27.643Z,101011.22
2023-03-29T12:40:56.949Z,101005.12
2023-03-29T12:44:03.881Z,101007.97
2023-03-29T12:47:06.413Z,100998.50
2023-03-29T12:50:36.937Z,100999.94
2023-03-29T12:53:41.946Z,101003.59
2023-03-29T12:56:56.612Z,101002.75
2023-03-29T13:00:26.586Z,101002.38
2023-03-29T13:03:40.159Z,100997.88
2023-03-29T13:06:48.094Z,100998.50
2023-03-29T13:10:25.275Z,100995.69
2023-03-29T13:13:36.665Z,100981.91
2023-03-29T13:16:41.055Z,100985.03
2023-03-29T13:20:02.148Z,100972.59
2023-03-29T13:23:07.583Z,100972.81
2023-03-29T13:26:28.715Z,100973.97
2023-03-29T13:29:49.835Z,100969.84
2023-03-29T13:33:22.748Z,100969.69
2023-03-29T13:36:41.138Z,100969.41
2023-03-29T13:39:54.577Z,100963.91
2023-03-29T13:43:11.024Z,100963.00
2023-03-29T13:46:23.748Z,100956.88
2023-03-29T13:49:29.429Z,100957.41
2023-03-29T13:52:40.134Z,100946.81
2023-03-29T13:55:52.212Z,100948.06
2023-03-29T13:59:03.565Z,100943.16
2023-03-29T14:02:06.516Z,100947.84
2023-03-29T14:05:13.536Z,100940.38
2023-03-29T14:08:27.241Z,100944.81
2023-03-29T14:11:31.046Z,100940.16
2023-03-29T14:14:33.329Z,100939.59
2023-03-29T14:17:36.952Z,100939.97
2023-03-29T14:20:44.038Z,100931.28
2023-03-29T14:23:53.768Z,100935.50
2023-03-29T14:26:55.843Z,100931.25
2023-03-29T14:29:58.544Z,100938.31
2023-03-29T14:33:04.911Z,100932.19
2023-03-29T14:36:16.557Z,100926.00
2023-03-29T14:39:21.638Z,100930.25
2023-03-29T14:42:26.778Z,100931.13
2023-03-29T14:45:29.131Z,100930.97
2023-03-29T14:48:33.190Z,100923.91
2023-03-29T14:51:35.970Z,100918.47
2023-03-29T14:54:42.440Z,100916.75
2023-03-29T14:57:44.540Z,100915.72
2023-03-29T15:00:50.291Z,100920.88
2023-03-29T15:04:01.439Z,100914.69
2023-03-29T15:07:05.006Z,100917.91
2023-03-29T15:10:08.150Z,100907.53
2023-03-29T15:13:21.646Z,100908.56
2023-03-29T15:16:23.865Z,100907.56
2023-03-29T15:19:27.019Z,100894.72
2023-03-29T15:22:33.527Z,100904.56
2023-03-29T15:25:48.878Z,100899.47
2023-03-29T15:28:57.512Z,100899.56
2023-03-29T15:31:59.906Z,100894.87
2023-03-29T15:35:05.551Z,100894.87
2023-03-29T15:38:12.245Z,100889.25
